sensor_id;sensor_type;location;lat;lon;timestamp;pressure;altitude;pressure_sealevel;temperature;humidity
4576;BME280;2300;51.874;8.430;2022-09-09T00:01:05;100034.06;;;15.66;90.19
4576;BME280;2300;51.874;8.430;2022-09-09T00:03:41;100022.16;;;15.60;90.50
4576;BME280;2300;51.874;8.430;2022-09-09T00:06:17;100020.81;;;15.53;90.84
4576;BME280;2300;51.874;8.430;2022-09-09T00:08:51;100025.53;;;15.52;90.49
4576;BME280;2300;51.874;8.430;2022-09-09T00:11:24;100017.81;;;15.44;91.86
4576;BME280;2300;51.874;8.430;2022-09-09T00:13:53;100018.06;;;15.47;90.82
4576;BME280;2300;51.874;8.430;2022-09-09T00:16:25;100014.22;;;15.48;90.72
4576;BME280;2300;51.874;8.430;2022-09-09T00:18:59;100011.16;;;15.45;91.00
4576;BME280;2300;51.874;8.430;2022-09-09T00:21:33;100006.44;;;15.50;91.63
4576;BME280;2300;51.874;8.430;2022-09-09T00:24:04;100016.38;;;15.57;90.81
4576;BME280;2300;51.874;8.430;2022-09-09T00:26:38;100028.03;;;15.54;91.43
4576;BME280;2300;51.874;8.430;2022-09-09T00:29:14;100034.69;;;15.47;91.63
4576;BME280;2300;51.874;8.430;2022-09-09T00:31:44;100036.00;;;15.60;90.55
4576;BME280;2300;51.874;8.430;2022-09-09T00:34:13;100037.97;;;15.55;90.65
4576;BME280;2300;51.874;8.430;2022-09-09T00:36:43;100030.22;;;15.52;90.93
4576;BME280;2300;51.874;8.430;2022-09-09T00:39:20;100028.56;;;15.56;90.61
4576;BME280;2300;51.874;8.430;2022-09-09T00:41:55;100029.38;;;15.56;90.67
4576;BME280;2300;51.874;8.430;2022-09-09T00:44:31;100029.13;;;15.58;91.31
4576;BME280;2300;51.874;8.430;2022-09-09T00:47:11;100015.28;;;15.53;91.82
4576;BME280;2300;51.874;8.430;2022-09-09T00:49:46;100018.31;;;15.56;91.57
4576;BME280;2300;51.874;8.430;2022-09-09T00:52:27;100021.94;;;15.52;91.01
4576;BME280;2300;51.874;8.430;2022-09-09T00:55:05;100011.69;;;15.52;91.04
4576;BME280;2300;51.874;8.430;2022-09-09T00:57:33;100010.03;;;15.46;90.91
4576;BME280;2300;51.874;8.430;2022-09-09T01:00:17;100023.63;;;15.42;91.56
4576;BME280;2300;51.874;8.430;2022-09-09T01:02:56;100023.06;;;15.45;91.59
4576;BME280;2300;51.874;8.430;2022-09-09T01:05:33;100028.88;;;15.44;91.22
4576;BME280;2300;51.874;8.430;2022-09-09T01:08:09;100025.28;;;15.43;91.31
4576;BME280;2300;51.874;8.430;2022-09-09T01:10:44;100020.84;;;15.42;91.30
4576;BME280;2300;51.874;8.430;2022-09-09T01:13:20;100026.91;;;15.44;91.93
4576;BME280;2300;51.874;8.430;2022-09-09T01:15:49;100021.13;;;15.46;92.38
4576;BME280;2300;51.874;8.430;2022-09-09T01:18:21;100018.34;;;15.41;93.33
4576;BME280;2300;51.874;8.430;2022-09-09T01:20:55;100021.69;;;15.43;92.38
4576;BME280;2300;51.874;8.430;2022-09-09T01:23:51;100016.16;;;15.43;92.27
4576;BME280;2300;51.874;8.430;2022-09-09T01:26:26;100025.81;;;15.45;93.22
4576;BME280;2300;51.874;8.430;2022-09-09T01:28:54;100018.06;;;15.53;93.15
4576;BME280;2300;51.874;8.430;2022-09-09T01:31:26;100019.16;;;15.57;92.87
4576;BME280;2300;51.874;8.430;2022-09-09T01:33:53;100006.97;;;15.58;93.57
4576;BME280;2300;51.874;8.430;2022-09-09T01:36:26;100011.38;;;15.64;92.77
4576;BME280;2300;51.874;8.430;2022-09-09T01:38:56;100011.41;;;15.59;93.22
4576;BME280;2300;51.874;8.430;2022-09-09T01:41:22;100021.38;;;15.60;93.34
4576;BME280;2300;51.874;8.430;2022-09-09T01:43:50;100012.50;;;15.63;92.78
4576;BME280;2300;51.874;8.430;2022-09-09T01:46:18;100015.28;;;15.53;92.69
4576;BME280;2300;51.874;8.430;2022-09-09T01:48:48;100008.34;;;15.55;92.47
4576;BME280;2300;51.874;8.430;2022-09-09T01:51:15;100012.53;;;15.53;92.19
4576;BME280;2300;51.874;8.430;2022-09-09T01:53:42;100004.50;;;15.46;93.34
4576;BME280;2300;51.874;8.430;2022-09-09T01:56:18;100011.47;;;15.38;93.50
4576;BME280;2300;51.874;8.430;2022-09-09T01:59:01;100016.16;;;15.43;93.34
4576;BME280;2300;51.874;8.430;2022-09-09T02:01:40;100009.81;;;15.32;94.32
4576;BME280;2300;51.874;8.430;2022-09-09T02:04:19;100012.00;;;15.35;94.47
4576;BME280;2300;51.874;8.430;2022-09-09T02:06:53;100011.47;;;15.33;94.78
4576;BME280;2300;51.874;8.430;2022-09-09T02:09:24;100012.28;;;15.29;94.47
4576;BME280;2300;51.874;8.430;2022-09-09T02:11:57;100007.91;;;15.28;95.07
4576;BME280;2300;51.874;8.430;2022-09-09T02:14:30;99995.44;;;15.25;95.21
4576;BME280;2300;51.874;8.430;2022-09-09T02:17:03;100009.25;;;15.25;95.53
4576;BME280;2300;51.874;8.430;2022-09-09T02:19:37;100008.72;;;15.33;95.08
4576;BME280;2300;51.874;8.430;2022-09-09T02:22:05;100004.81;;;15.29;95.64
4576;BME280;2300;51.874;8.430;2022-09-09T02:24:34;100008.13;;;15.36;94.74
4576;BME280;2300;51.874;8.430;2022-09-09T02:27:04;100007.31;;;15.36;95.65
4576;BME280;2300;51.874;8.430;2022-09-09T02:29:38;100010.91;;;15.36;95.25
4576;BME280;2300;51.874;8.430;2022-09-09T02:32:10;100009.53;;;15.34;95.86
4576;BME280;2300;51.874;8.430;2022-09-09T02:34:43;100011.19;;;15.30;95.59
4576;BME280;2300;51.874;8.430;2022-09-09T02:37:11;100012.56;;;15.37;95.55
4576;BME280;2300;51.874;8.430;2022-09-09T02:39:39;100013.13;;;15.34;95.48
4576;BME280;2300;51.874;8.430;2022-09-09T02:42:07;100012.56;;;15.37;95.61
4576;BME280;2300;51.874;8.430;2022-09-09T02:44:35;100015.31;;;15.42;95.26
4576;BME280;2300;51.874;8.430;2022-09-09T02:47:11;100009.25;;;15.35;96.13
4576;BME280;2300;51.874;8.430;2022-09-09T02:49:50;100013.09;;;15.39;96.52
4576;BME280;2300;51.874;8.430;2022-09-09T02:52:27;100011.16;;;15.45;95.51
4576;BME280;2300;51.874;8.430;2022-09-09T02:54:59;100020.59;;;15.39;96.24
4576;BME280;2300;51.874;8.430;2022-09-09T02:57:30;100010.91;;;15.41;96.70
4576;BME280;2300;51.874;8.430;2022-09-09T03:00:00;100019.78;;;15.33;97.07
4576;BME280;2300;51.874;8.430;2022-09-09T03:02:27;100019.22;;;15.31;96.66
4576;BME280;2300;51.874;8.430;2022-09-09T03:04:53;100021.97;;;15.36;96.26
4576;BME280;2300;51.874;8.430;2022-09-09T03:07:21;100020.31;;;15.35;96.49
4576;BME280;2300;51.874;8.430;2022-09-09T03:09:47;100027.25;;;15.33;96.44
4576;BME280;2300;51.874;8.430;2022-09-09T03:12:14;100026.66;;;15.36;96.68
4576;BME280;2300;51.874;8.430;2022-09-09T03:14:41;100031.38;;;15.35;96.67
4576;BME280;2300;51.874;8.430;2022-09-09T03:17:10;100034.44;;;15.34;96.83
4576;BME280;2300;51.874;8.430;2022-09-09T03:19:37;100028.09;;;15.23;97.59
4576;BME280;2300;51.874;8.430;2022-09-09T03:22:05;100031.94;;;15.27;97.21
4576;BME280;2300;51.874;8.430;2022-09-09T03:24:31;100020.91;;;15.22;97.98
4576;BME280;2300;51.874;8.430;2022-09-09T03:26:58;100028.91;;;15.24;97.33
4576;BME280;2300;51.874;8.430;2022-09-09T03:29:25;100032.47;;;15.29;97.56
4576;BME280;2300;51.874;8.430;2022-09-09T03:31:52;100025.31;;;15.28;97.60
4576;BME280;2300;51.874;8.430;2022-09-09T03:34:20;100026.94;;;15.29;97.01
4576;BME280;2300;51.874;8.430;2022-09-09T03:36:46;100020.88;;;15.27;97.45
4576;BME280;2300;51.874;8.430;2022-09-09T03:39:14;100028.06;;;15.33;96.94
4576;BME280;2300;51.874;8.430;2022-09-09T03:41:40;100016.69;;;15.40;96.04
4576;BME280;2300;51.874;8.430;2022-09-09T03:44:07;100018.94;;;15.33;96.67
4576;BME280;2300;51.874;8.430;2022-09-09T03:46:33;100016.44;;;15.36;96.21
4576;BME280;2300;51.874;8.430;2022-09-09T03:49:00;100015.84;;;15.44;96.04
4576;BME280;2300;51.874;8.430;2022-09-09T03:51:28;100014.22;;;15.48;95.33
4576;BME280;2300;51.874;8.430;2022-09-09T03:53:54;100003.97;;;15.54;94.96
4576;BME280;2300;51.874;8.430;2022-09-09T03:56:23;100006.41;;;15.56;94.63
4576;BME280;2300;51.874;8.430;2022-09-09T03:58:50;100016.66;;;15.50;94.89
4576;BME280;2300;51.874;8.430;2022-09-09T04:01:16;100018.31;;;15.56;94.99
4576;BME280;2300;51.874;8.430;2022-09-09T04:03:43;100008.09;;;15.52;95.32
4576;BME280;2300;51.874;8.430;2022-09-09T04:06:12;100020.53;;;15.64;95.16
4576;BME280;2300;51.874;8.430;2022-09-09T04:08:41;100029.13;;;15.58;94.94
4576;BME280;2300;51.874;8.430;2022-09-09T04:11:08;100023.03;;;15.56;96.02
4576;BME280;2300;51.874;8.430;2022-09-09T04:13:36;100018.06;;;15.53;97.51
4576;BME280;2300;51.874;8.430;2022-09-09T04:16:04;100023.00;;;15.61;97.39
4576;BME280;2300;51.874;8.430;2022-09-09T04:18:31;100025.50;;;15.57;97.85
4576;BME280;2300;51.874;8.430;2022-09-09T04:20:58;100018.59;;;15.65;97.67
4576;BME280;2300;51.874;8.430;2022-09-09T04:23:25;100024.09;;;15.70;97.76
4576;BME280;2300;51.874;8.430;2022-09-09T04:25:57;100020.47;;;15.74;97.24
4576;BME280;2300;51.874;8.430;2022-09-09T04:28:25;100019.09;;;15.72;97.80
4576;BME280;2300;51.874;8.430;2022-09-09T04:30:52;100021.59;;;15.73;98.63
4576;BME280;2300;51.874;8.430;2022-09-09T04:33:18;100016.31;;;15.72;98.31
4576;BME280;2300;51.874;8.430;2022-09-09T04:35:46;100020.19;;;15.76;97.73
4576;BME280;2300;51.874;8.430;2022-09-09T04:38:14;100019.09;;;15.72;97.39
4576;BME280;2300;51.874;8.430;2022-09-09T04:40:42;100021.34;;;15.70;97.06
4576;BME280;2300;51.874;8.430;2022-09-09T04:43:10;100026.28;;;15.73;97.49
4576;BME280;2300;51.874;8.430;2022-09-09T04:45:36;100022.97;;;15.71;98.30
4576;BME280;2300;51.874;8.430;2022-09-09T04:48:05;100020.19;;;15.76;96.94
4576;BME280;2300;51.874;8.430;2022-09-09T04:50:32;100024.09;;;15.75;97.08
4576;BME280;2300;51.874;8.430;2022-09-09T04:52:59;100024.09;;;15.75;97.10
4576;BME280;2300;51.874;8.430;2022-09-09T04:55:26;100021.31;;;15.75;96.85
4576;BME280;2300;51.874;8.430;2022-09-09T04:57:52;100032.09;;;15.76;97.12
4576;BME280;2300;51.874;8.430;2022-09-09T05:00:20;100031.25;;;15.76;97.03
4576;BME280;2300;51.874;8.430;2022-09-09T05:02:47;100031.25;;;15.76;96.28
4576;BME280;2300;51.874;8.430;2022-09-09T05:05:13;100029.59;;;15.80;96.21
4576;BME280;2300;51.874;8.430;2022-09-09T05:07:40;100022.94;;;15.81;96.61
4576;BME280;2300;51.874;8.430;2022-09-09T05:10:07;100034.81;;;15.86;96.92
4576;BME280;2300;51.874;8.430;2022-09-09T05:12:35;100030.66;;;15.89;96.76
4576;BME280;2300;51.874;8.430;2022-09-09T05:15:02;100038.72;;;15.85;96.84
4576;BME280;2300;51.874;8.430;2022-09-09T05:17:30;100043.41;;;15.90;96.72
4576;BME280;2300;51.874;8.430;2022-09-09T05:19:56;100038.41;;;15.87;96.54
4576;BME280;2300;51.874;8.430;2022-09-09T05:22:23;100043.94;;;15.87;96.50
4576;BME280;2300;51.874;8.430;2022-09-09T05:24:50;100042.28;;;15.86;96.44
4576;BME280;2300;51.874;8.430;2022-09-09T05:27:17;100043.41;;;15.90;96.62
4576;BME280;2300;51.874;8.430;2022-09-09T05:29:44;100034.50;;;15.98;96.22
4576;BME280;2300;51.874;8.430;2022-09-09T05:32:11;100044.75;;;15.98;96.15
4576;BME280;2300;51.874;8.430;2022-09-09T05:34:40;100046.13;;;16.00;96.23
4576;BME280;2300;51.874;8.430;2022-09-09T05:37:06;100038.06;;;16.04;96.07
4576;BME280;2300;51.874;8.430;2022-09-09T05:39:33;100039.47;;;16.11;95.90
4576;BME280;2300;51.874;8.430;2022-09-09T05:42:01;100041.66;;;16.14;95.33
4576;BME280;2300;51.874;8.430;2022-09-09T05:44:27;100053.28;;;16.16;95.83
4576;BME280;2300;51.874;8.430;2022-09-09T05:46:54;100056.03;;;16.21;95.31
4576;BME280;2300;51.874;8.430;2022-09-09T05:49:20;100049.34;;;16.22;94.73
4576;BME280;2300;51.874;8.430;2022-09-09T05:51:49;100042.16;;;16.26;94.56
4576;BME280;2300;51.874;8.430;2022-09-09T05:54:16;100044.06;;;16.31;94.31
4576;BME280;2300;51.874;8.430;2022-09-09T05:56:43;100054.84;;;16.32;94.10
4576;BME280;2300;51.874;8.430;2022-09-09T05:59:09;100045.09;;;16.40;94.66
4576;BME280;2300;51.874;8.430;2022-09-09T06:01:37;100052.00;;;16.48;94.87
4576;BME280;2300;51.874;8.430;2022-09-09T06:04:06;100051.66;;;16.54;94.98
4576;BME280;2300;51.874;8.430;2022-09-09T06:06:34;100055.78;;;16.62;94.62
4576;BME280;2300;51.874;8.430;2022-09-09T06:09:04;100055.75;;;16.67;94.06
4576;BME280;2300;51.874;8.430;2022-09-09T06:11:35;100043.50;;;16.73;93.68
4576;BME280;2300;51.874;8.430;2022-09-09T06:14:03;100047.69;;;16.70;93.51
4576;BME280;2300;51.874;8.430;2022-09-09T06:16:30;100051.84;;;16.73;93.34
4576;BME280;2300;51.874;8.430;2022-09-09T06:18:58;100049.34;;;16.71;93.74
4576;BME280;2300;51.874;8.430;2022-09-09T06:21:27;100041.22;;;16.80;92.89
4576;BME280;2300;51.874;8.430;2022-09-09T06:23:54;100050.63;;;16.84;92.51
4576;BME280;2300;51.874;8.430;2022-09-09T06:26:23;100042.25;;;16.94;92.37
4576;BME280;2300;51.874;8.430;2022-09-09T06:28:51;100043.88;;;16.95;91.79
4576;BME280;2300;51.874;8.430;2022-09-09T06:31:19;100047.44;;;17.01;91.30
4576;BME280;2300;51.874;8.430;2022-09-09T06:33:48;100039.44;;;16.99;91.65
4576;BME280;2300;51.874;8.430;2022-09-09T06:36:16;100036.63;;;17.04;90.96
4576;BME280;2300;51.874;8.430;2022-09-09T06:38:43;100050.75;;;17.03;90.53
4576;BME280;2300;51.874;8.430;2022-09-09T06:41:12;100051.63;;;16.98;91.11
4576;BME280;2300;51.874;8.430;2022-09-09T06:43:40;100053.53;;;17.03;91.45
4576;BME280;2300;51.874;8.430;2022-09-09T06:46:09;100052.97;;;17.06;91.63
4576;BME280;2300;51.874;8.430;2022-09-09T06:48:38;100052.69;;;17.07;91.70
4576;BME280;2300;51.874;8.430;2022-09-09T06:51:07;100057.63;;;17.10;91.56
4576;BME280;2300;51.874;8.430;2022-09-09T06:53:35;100059.25;;;17.16;91.11
4576;BME280;2300;51.874;8.430;2022-09-09T06:56:18;100057.53;;;17.21;91.36
4576;BME280;2300;51.874;8.430;2022-09-09T06:58:46;100061.16;;;17.21;91.07
4576;BME280;2300;51.874;8.430;2022-09-09T07:01:15;100068.16;;;17.13;91.38
4576;BME280;2300;51.874;8.430;2022-09-09T07:03:45;100064.28;;;17.14;91.42
4576;BME280;2300;51.874;8.430;2022-09-09T07:06:14;100077.28;;;17.19;90.45
4576;BME280;2300;51.874;8.430;2022-09-09T07:08:42;100064.53;;;17.18;90.54
4576;BME280;2300;51.874;8.430;2022-09-09T07:11:17;100070.41;;;17.11;90.56
4576;BME280;2300;51.874;8.430;2022-09-09T07:13:44;100068.38;;;17.22;90.51
4576;BME280;2300;51.874;8.430;2022-09-09T07:16:12;100066.13;;;17.24;90.47
4576;BME280;2300;51.874;8.430;2022-09-09T07:18:40;100068.09;;;17.24;90.38
4576;BME280;2300;51.874;8.430;2022-09-09T07:21:07;100064.16;;;17.30;89.71
4576;BME280;2300;51.874;8.430;2022-09-09T07:23:33;100070.16;;;17.37;89.77
4576;BME280;2300;51.874;8.430;2022-09-09T07:26:01;100064.34;;;17.38;89.95
4576;BME280;2300;51.874;8.430;2022-09-09T07:28:28;100069.78;;;17.48;89.64
4576;BME280;2300;51.874;8.430;2022-09-09T07:30:58;100073.00;;;17.60;89.32
4576;BME280;2300;51.874;8.430;2022-09-09T07:33:26;100074.28;;;17.68;89.00
4576;BME280;2300;51.874;8.430;2022-09-09T07:35:53;100066.44;;;17.75;89.44
4576;BME280;2300;51.874;8.430;2022-09-09T07:38:20;100070.16;;;17.89;88.83
4576;BME280;2300;51.874;8.430;2022-09-09T07:40:48;100065.78;;;17.83;87.83
4576;BME280;2300;51.874;8.430;2022-09-09T07:43:14;100071.88;;;17.85;87.19
4576;BME280;2300;51.874;8.430;2022-09-09T07:45:45;100059.13;;;17.84;86.70
4576;BME280;2300;51.874;8.430;2022-09-09T07:48:12;100066.81;;;17.92;86.13
4576;BME280;2300;51.874;8.430;2022-09-09T07:50:38;100071.78;;;17.95;86.36
4576;BME280;2300;51.874;8.430;2022-09-09T07:53:05;100066.78;;;17.97;85.49
4576;BME280;2300;51.874;8.430;2022-09-09T07:55:31;100072.50;;;18.06;86.34
4576;BME280;2300;51.874;8.430;2022-09-09T07:57:58;100069.59;;;18.16;85.46
4576;BME280;2300;51.874;8.430;2022-09-09T08:00:24;100072.44;;;18.30;85.48
4576;BME280;2300;51.874;8.430;2022-09-09T08:02:53;100073.53;;;18.34;84.15
4576;BME280;2300;51.874;8.430;2022-09-09T08:05:20;100067.97;;;18.34;84.50
4576;BME280;2300;51.874;8.430;2022-09-09T08:07:47;100071.31;;;18.55;84.17
4576;BME280;2300;51.874;8.430;2022-09-09T08:10:14;100072.41;;;18.72;83.83
4576;BME280;2300;51.874;8.430;2022-09-09T08:12:41;100071.91;;;18.70;82.53
4576;BME280;2300;51.874;8.430;2022-09-09T08:15:07;100073.44;;;18.76;82.83
4576;BME280;2300;51.874;8.430;2022-09-09T08:17:34;100066.63;;;18.69;82.78
4576;BME280;2300;51.874;8.430;2022-09-09T08:20:05;100069.72;;;18.67;81.87
4576;BME280;2300;51.874;8.430;2022-09-09T08:22:31;100071.22;;;18.78;81.75
4576;BME280;2300;51.874;8.430;2022-09-09T08:24:58;100073.25;;;18.73;82.14
4576;BME280;2300;51.874;8.430;2022-09-09T08:27:25;100079.03;;;18.76;82.24
4576;BME280;2300;51.874;8.430;2022-09-09T08:29:52;100079.72;;;18.87;80.41
4576;BME280;2300;51.874;8.430;2022-09-09T08:32:18;100080.03;;;18.85;80.36
4576;BME280;2300;51.874;8.430;2022-09-09T08:34:45;100078.72;;;18.97;80.71
4576;BME280;2300;51.874;8.430;2022-09-09T08:37:12;100095.16;;;19.31;79.16
4576;BME280;2300;51.874;8.430;2022-09-09T08:39:39;100095.44;;;19.61;77.44
4576;BME280;2300;51.874;8.430;2022-09-09T08:44:53;100085.78;;;20.54;77.98
4576;BME280;2300;51.874;8.430;2022-09-09T08:47:33;100098.84;;;20.81;75.70
4576;BME280;2300;51.874;8.430;2022-09-09T08:50:08;100093.75;;;20.83;75.24
4576;BME280;2300;51.874;8.430;2022-09-09T08:52:48;100108.22;;;20.36;73.57
4576;BME280;2300;51.874;8.430;2022-09-09T08:55:25;100098.16;;;19.80;74.59
4576;BME280;2300;51.874;8.430;2022-09-09T08:57:55;100104.28;;;19.50;75.73
4576;BME280;2300;51.874;8.430;2022-09-09T09:00:22;100107.97;;;19.45;76.24
4576;BME280;2300;51.874;8.430;2022-09-09T09:03:00;100103.53;;;19.44;77.35
4576;BME280;2300;51.874;8.430;2022-09-09T09:05:35;100106.56;;;19.48;77.49
4576;BME280;2300;51.874;8.430;2022-09-09T09:08:12;100104.06;;;19.46;76.52
4576;BME280;2300;51.874;8.430;2022-09-09T09:10:46;100109.44;;;19.43;77.24
4576;BME280;2300;51.874;8.430;2022-09-09T09:13:19;100095.41;;;19.48;77.64
4576;BME280;2300;51.874;8.430;2022-09-09T09:15:52;100097.56;;;19.97;77.28
4576;BME280;2300;51.874;8.430;2022-09-09T09:18:20;100114.91;;;20.48;76.19
4576;BME280;2300;51.874;8.430;2022-09-09T09:20:55;100104.72;;;20.80;74.83
4576;BME280;2300;51.874;8.430;2022-09-09T09:23:32;100102.47;;;20.82;72.97
4576;BME280;2300;51.874;8.430;2022-09-09T09:26:00;100111.34;;;20.84;72.75
4576;BME280;2300;51.874;8.430;2022-09-09T09:28:30;100098.91;;;20.90;72.34
4576;BME280;2300;51.874;8.430;2022-09-09T09:31:01;100100.63;;;20.77;71.52
4576;BME280;2300;51.874;8.430;2022-09-09T09:33:33;100103.47;;;20.86;72.06
4576;BME280;2300;51.874;8.430;2022-09-09T09:36:02;100096.13;;;20.54;70.28
4576;BME280;2300;51.874;8.430;2022-09-09T09:38:29;100092.38;;;20.59;72.94
4576;BME280;2300;51.874;8.430;2022-09-09T09:40:58;100097.84;;;20.77;71.57
4576;BME280;2300;51.874;8.430;2022-09-09T09:43:27;100097.41;;;21.06;70.84
4576;BME280;2300;51.874;8.430;2022-09-09T09:45:55;100098.81;;;21.17;71.78
4576;BME280;2300;51.874;8.430;2022-09-09T09:48:23;100092.00;;;21.23;69.07
4576;BME280;2300;51.874;8.430;2022-09-09T09:50:52;100087.25;;;21.10;70.68
4576;BME280;2300;51.874;8.430;2022-09-09T09:53:23;100098.88;;;21.04;70.42
4576;BME280;2300;51.874;8.430;2022-09-09T09:55:54;100095.19;;;20.94;71.23
4576;BME280;2300;51.874;8.430;2022-09-09T09:58:22;100096.72;;;21.01;69.04
4576;BME280;2300;51.874;8.430;2022-09-09T10:00:50;100097.69;;;21.18;70.60
4576;BME280;2300;51.874;8.430;2022-09-09T10:03:23;100090.84;;;21.47;69.92
4576;BME280;2300;51.874;8.430;2022-09-09T10:05:50;100097.63;;;21.54;70.39
4576;BME280;2300;51.874;8.430;2022-09-09T10:08:17;100100.16;;;21.42;69.60
4576;BME280;2300;51.874;8.430;2022-09-09T10:10:56;100093.84;;;21.28;68.95
4576;BME280;2300;51.874;8.430;2022-09-09T10:13:27;100101.09;;;21.15;70.38
4576;BME280;2300;51.874;8.430;2022-09-09T10:16:06;100107.81;;;20.92;70.33
4576;BME280;2300;51.874;8.430;2022-09-09T10:18:44;100105.31;;;20.90;70.51
4576;BME280;2300;51.874;8.430;2022-09-09T10:21:20;100108.31;;;21.16;71.40
4576;BME280;2300;51.874;8.430;2022-09-09T10:24:05;100104.06;;;21.32;71.30
4576;BME280;2300;51.874;8.430;2022-09-09T10:26:40;100107.09;;;21.22;70.06
4576;BME280;2300;51.874;8.430;2022-09-09T10:29:20;100105.66;;;21.11;70.39
4576;BME280;2300;51.874;8.430;2022-09-09T10:31:57;100104.06;;;20.96;70.36
4576;BME280;2300;51.874;8.430;2022-09-09T10:34:45;100092.84;;;20.88;70.38
4576;BME280;2300;51.874;8.430;2022-09-09T10:37:25;100093.34;;;20.90;71.55
4576;BME280;2300;51.874;8.430;2022-09-09T10:40:01;100093.03;;;20.91;70.26
4576;BME280;2300;51.874;8.430;2022-09-09T10:42:31;100089.56;;;21.08;69.74
4576;BME280;2300;51.874;8.430;2022-09-09T10:45:07;100082.06;;;21.17;69.31
4576;BME280;2300;51.874;8.430;2022-09-09T10:48:00;100077.22;;;21.45;68.16
4576;BME280;2300;51.874;8.430;2022-09-09T10:50:49;100075.91;;;21.51;68.45
4576;BME280;2300;51.874;8.430;2022-09-09T10:53:24;100069.88;;;21.58;67.24
4576;BME280;2300;51.874;8.430;2022-09-09T10:55:56;100062.41;;;21.75;68.01
4576;BME280;2300;51.874;8.430;2022-09-09T10:58:30;100071.56;;;21.98;68.00
4576;BME280;2300;51.874;8.430;2022-09-09T11:01:02;100067.69;;;22.16;68.79
4576;BME280;2300;51.874;8.430;2022-09-09T11:03:35;100069.53;;;22.30;66.44
4576;BME280;2300;51.874;8.430;2022-09-09T11:06:06;100072.63;;;22.11;66.30
4576;BME280;2300;51.874;8.430;2022-09-09T11:08:38;100066.75;;;21.90;67.33
4576;BME280;2300;51.874;8.430;2022-09-09T11:11:10;100067.22;;;21.92;66.56
4576;BME280;2300;51.874;8.430;2022-09-09T11:13:44;100068.06;;;21.93;66.42
4576;BME280;2300;51.874;8.430;2022-09-09T11:16:21;100054.91;;;21.54;66.51
4576;BME280;2300;51.874;8.430;2022-09-09T11:18:49;100053.63;;;21.60;65.87
4576;BME280;2300;51.874;8.430;2022-09-09T11:21:21;100050.16;;;21.94;67.76
4576;BME280;2300;51.874;8.430;2022-09-09T11:23:53;100062.25;;;22.11;66.20
4576;BME280;2300;51.874;8.430;2022-09-09T11:26:29;100057.59;;;21.98;64.59
4576;BME280;2300;51.874;8.430;2022-09-09T11:29:08;100070.69;;;21.58;65.47
4576;BME280;2300;51.874;8.430;2022-09-09T11:31:44;100079.50;;;21.21;68.00
4576;BME280;2300;51.874;8.430;2022-09-09T11:34:31;100077.72;;;20.67;75.76
4576;BME280;2300;51.874;8.430;2022-09-09T11:40:14;100072.38;;;19.75;83.05
4576;BME280;2300;51.874;8.430;2022-09-09T11:42:43;100075.50;;;19.87;83.26
4576;BME280;2300;51.874;8.430;2022-09-09T11:45:21;100081.88;;;20.01;86.31
4576;BME280;2300;51.874;8.430;2022-09-09T11:50:28;100077.75;;;20.26;86.27
4576;BME280;2300;51.874;8.430;2022-09-09T11:53:06;100072.78;;;20.36;82.41
4576;BME280;2300;51.874;8.430;2022-09-09T11:55:41;100066.59;;;20.39;76.53
4576;BME280;2300;51.874;8.430;2022-09-09T11:58:15;100066.16;;;20.32;78.42
4576;BME280;2300;51.874;8.430;2022-09-09T12:00:46;100054.63;;;20.25;77.89
4576;BME280;2300;51.874;8.430;2022-09-09T12:06:15;100055.66;;;20.57;75.51
4576;BME280;2300;51.874;8.430;2022-09-09T12:08:45;100062.19;;;20.74;74.37
4576;BME280;2300;51.874;8.430;2022-09-09T12:11:24;100050.59;;;20.81;72.56
4576;BME280;2300;51.874;8.430;2022-09-09T12:13:53;100047.03;;;20.89;71.14
4576;BME280;2300;51.874;8.430;2022-09-09T12:16:30;100051.94;;;21.06;71.76
4576;BME280;2300;51.874;8.430;2022-09-09T12:19:14;100048.19;;;21.10;71.26
4576;BME280;2300;51.874;8.430;2022-09-09T12:21:48;100051.38;;;21.17;69.02
4576;BME280;2300;51.874;8.430;2022-09-09T12:24:20;100051.53;;;21.34;72.05
4576;BME280;2300;51.874;8.430;2022-09-09T12:26:56;100044.59;;;21.32;69.57
4576;BME280;2300;51.874;8.430;2022-09-09T12:29:31;100044.00;;;21.44;71.16
4576;BME280;2300;51.874;8.430;2022-09-09T12:32:06;100040.78;;;21.50;68.86
4576;BME280;2300;51.874;8.430;2022-09-09T12:34:39;100043.34;;;21.47;67.53
4576;BME280;2300;51.874;8.430;2022-09-09T12:37:13;100049.81;;;21.56;68.27
4576;BME280;2300;51.874;8.430;2022-09-09T12:39:45;100043.00;;;21.70;69.21
4576;BME280;2300;51.874;8.430;2022-09-09T12:42:18;100047.69;;;21.61;68.32
4576;BME280;2300;51.874;8.430;2022-09-09T12:44:55;100045.66;;;21.45;66.00
4576;BME280;2300;51.874;8.430;2022-09-09T12:47:29;100046.69;;;21.26;68.10
4576;BME280;2300;51.874;8.430;2022-09-09T12:49:57;100043.41;;;21.24;69.38
4576;BME280;2300;51.874;8.430;2022-09-09T12:52:27;100048.56;;;21.17;68.80
4576;BME280;2300;51.874;8.430;2022-09-09T12:54:57;100043.69;;;21.01;68.68
4576;BME280;2300;51.874;8.430;2022-09-09T12:57:26;100048.84;;;21.07;70.71
4576;BME280;2300;51.874;8.430;2022-09-09T13:00:11;100052.25;;;20.82;68.25
4576;BME280;2300;51.874;8.430;2022-09-09T13:02:48;100048.84;;;20.49;68.13
4576;BME280;2300;51.874;8.430;2022-09-09T13:05:18;100056.69;;;20.33;69.19
4576;BME280;2300;51.874;8.430;2022-09-09T13:07:45;100049.97;;;20.34;70.51
4576;BME280;2300;51.874;8.430;2022-09-09T13:10:14;100051.63;;;20.35;72.64
4576;BME280;2300;51.874;8.430;2022-09-09T13:12:42;100051.50;;;20.54;73.90
4576;BME280;2300;51.874;8.430;2022-09-09T13:15:16;100047.56;;;20.91;74.80
4576;BME280;2300;51.874;8.430;2022-09-09T13:17:51;100045.09;;;21.12;72.86
4576;BME280;2300;51.874;8.430;2022-09-09T13:20:19;100028.72;;;21.19;70.82
4576;BME280;2300;51.874;8.430;2022-09-09T13:22:47;100037.28;;;21.45;71.46
4576;BME280;2300;51.874;8.430;2022-09-09T13:25:21;100020.94;;;21.60;70.66
4576;BME280;2300;51.874;8.430;2022-09-09T13:27:56;100019.16;;;21.73;69.86
4576;BME280;2300;51.874;8.430;2022-09-09T13:30:25;100024.97;;;21.85;67.82
4576;BME280;2300;51.874;8.430;2022-09-09T13:33:22;100028.81;;;21.98;69.55
4576;BME280;2300;51.874;8.430;2022-09-09T13:35:50;100021.47;;;22.10;67.16
4576;BME280;2300;51.874;8.430;2022-09-09T13:38:18;100016.25;;;22.17;67.50
4576;BME280;2300;51.874;8.430;2022-09-09T13:40:58;100024.16;;;22.33;66.48